createdAt,value
2023-04-20T00:00:32.652Z,13.20
2023-04-20T00:03:02.080Z,13.23
2023-04-20T00:05:32.300Z,12.82
2023-04-20T00:08:01.640Z,16.10
2023-04-20T00:10:30.421Z,15.63
2023-04-20T00:13:00.583Z,12.00
2023-04-20T00:15:30.371Z,11.38
2023-04-20T00:17:59.009Z,14.18
2023-04-20T00:20:27.906Z,12.23
2023-04-20T00:22:56.707Z,11.15
2023-04-20T00:25:25.682Z,14.68
2023-04-20T00:27:54.245Z,14.35
2023-04-20T00:30:24.550Z,12.25
2023-04-20T00:32:53.241Z,11.63
2023-04-20T00:35:21.660Z,13.13
2023-04-20T00:37:52.427Z,10.43
2023-04-20T00:40:21.207Z,13.68
2023-04-20T00:42:50.178Z,13.85
2023-04-20T00:45:18.717Z,14.65
2023-04-20T00:47:49.331Z,13.43
2023-04-20T00:50:18.584Z,13.40
2023-04-20T00:52:48.257Z,10.93
2023-04-20T00:55:16.962Z,13.85
2023-04-20T00:57:46.968Z,16.75
2023-04-20T01:00:15.800Z,14.88
2023-04-20T01:02:44.383Z,15.68
2023-04-20T01:05:15.353Z,16.83
2023-04-20T01:07:43.866Z,12.02
2023-04-20T01:10:12.401Z,11.98
2023-04-20T01:12:42.326Z,13.20
2023-04-20T01:15:12.799Z,14.75
2023-04-20T01:17:42.030Z,15.73
2023-04-20T01:20:13.115Z,14.57
2023-04-20T01:22:47.998Z,13.27
2023-04-20T01:25:17.368Z,14.98
2023-04-20T01:27:46.274Z,15.23
2023-04-20T01:30:15.354Z,11.93
2023-04-20T01:32:45.337Z,12.40
2023-04-20T01:35:14.230Z,14.50
2023-04-20T01:37:43.354Z,13.25
2023-04-20T01:40:16.383Z,12.25
2023-04-20T01:42:45.219Z,12.30
2023-04-20T01:45:14.788Z,14.40
2023-04-20T01:47:43.874Z,12.93
2023-04-20T01:50:12.769Z,11.15
2023-04-20T01:52:43.532Z,14.68
2023-04-20T01:55:13.737Z,13.57
2023-04-20T01:57:44.821Z,11.55
2023-04-20T02:00:16.118Z,11.30
2023-04-20T02:02:46.148Z,12.02
2023-04-20T02:05:14.924Z,14.18
2023-04-20T02:07:43.391Z,11.18
2023-04-20T02:10:14.016Z,12.63
2023-04-20T02:12:47.267Z,11.43
2023-04-20T02:15:16.165Z,12.48
2023-04-20T02:17:45.614Z,13.43
2023-04-20T02:20:14.858Z,12.02
2023-04-20T02:22:44.585Z,11.40
2023-04-20T02:25:15.561Z,12.35
2023-04-20T02:27:45.080Z,11.02
2023-04-20T02:30:14.504Z,11.07
2023-04-20T02:32:44.530Z,11.15
2023-04-20T02:35:13.292Z,11.73
2023-04-20T02:37:44.861Z,11.18
2023-04-20T02:40:16.143Z,11.23
2023-04-20T02:42:44.725Z,12.25
2023-04-20T02:45:13.950Z,14.93
2023-04-20T02:47:45.853Z,17.08
2023-04-20T02:50:16.162Z,13.00
2023-04-20T02:53:05.244Z,14.13
2023-04-20T02:55:37.856Z,12.95
2023-04-20T02:58:17.951Z,12.48
2023-04-20T03:01:16.880Z,11.90
2023-04-20T03:03:50.924Z,10.95
2023-04-20T03:06:20.148Z,12.38
2023-04-20T03:08:54.502Z,9.68
2023-04-20T03:11:51.819Z,10.63
2023-04-20T03:14:41.539Z,10.70
2023-04-20T03:17:10.638Z,10.73
2023-04-20T03:19:39.474Z,12.15
2023-04-20T03:22:08.245Z,10.77
2023-04-20T03:24:39.019Z,10.18
2023-04-20T03:27:19.953Z,9.07
2023-04-20T03:30:12.466Z,13.68
2023-04-20T03:32:41.662Z,11.18
2023-04-20T03:35:13.658Z,11.38
2023-04-20T03:37:42.610Z,11.27
2023-04-20T03:40:13.015Z,11.35
2023-04-20T03:42:43.796Z,11.95
2023-04-20T03:45:13.931Z,8.20
2023-04-20T03:47:44.393Z,11.50
2023-04-20T03:50:13.354Z,9.90
2023-04-20T03:52:42.610Z,13.48
2023-04-20T03:55:15.060Z,10.98
2023-04-20T03:57:51.118Z,11.68
2023-04-20T04:00:20.702Z,8.82
2023-04-20T04:02:49.509Z,10.30
2023-04-20T04:05:26.672Z,10.98
2023-04-20T04:07:57.865Z,13.35
2023-04-20T04:10:26.616Z,11.23
2023-04-20T04:12:57.302Z,12.15
2023-04-20T04:15:26.440Z,10.63
2023-04-20T04:18:13.830Z,11.13
2023-04-20T04:20:44.020Z,10.10
2023-04-20T04:23:15.147Z,14.77
2023-04-20T04:25:52.877Z,13.27
2023-04-20T04:28:28.126Z,11.13
2023-04-20T04:31:07.347Z,11.25
2023-04-20T04:33:37.690Z,9.68
2023-04-20T04:36:12.068Z,8.55
2023-04-20T04:38:41.366Z,10.50
2023-04-20T04:41:15.900Z,12.15
2023-04-20T04:43:48.245Z,10.57
2023-04-20T04:46:29.081Z,11.07
2023-04-20T04:49:01.331Z,10.65
2023-04-20T04:51:31.963Z,8.80
2023-04-20T04:54:01.404Z,10.80
2023-04-20T04:56:29.978Z,9.63
2023-04-20T04:59:00.553Z,9.07
2023-04-20T05:01:29.213Z,9.40
2023-04-20T05:03:57.712Z,9.90
2023-04-20T05:06:26.667Z,14.32
2023-04-20T05:08:55.986Z,10.20
2023-04-20T05:11:25.881Z,11.70
2023-04-20T05:13:54.985Z,10.48
2023-04-20T05:16:25.298Z,11.65
2023-04-20T05:18:57.122Z,12.38
2023-04-20T05:21:26.359Z,8.75
2023-04-20T05:23:55.688Z,9.50
2023-04-20T05:26:24.644Z,10.32
2023-04-20T05:28:53.470Z,9.75
2023-04-20T05:31:22.082Z,8.32
2023-04-20T05:33:52.160Z,11.52
2023-04-20T05:36:22.316Z,8.98
2023-04-20T05:38:50.812Z,8.68
2023-04-20T05:41:19.992Z,9.70
2023-04-20T05:43:48.606Z,10.25
2023-04-20T05:46:17.794Z,8.82
2023-04-20T05:48:46.862Z,12.02
2023-04-20T05:51:17.504Z,10.68
2023-04-20T05:53:46.854Z,11.45
2023-04-20T05:56:16.170Z,9.67
2023-04-20T05:58:45.658Z,9.48
2023-04-20T06:01:14.584Z,12.13
2023-04-20T06:03:43.574Z,9.73
2023-04-20T06:06:14.064Z,8.52
2023-04-20T06:08:47.560Z,9.57
2023-04-20T06:11:19.290Z,9.88
2023-04-20T06:13:48.092Z,10.20
2023-04-20T06:16:17.743Z,10.02
2023-04-20T06:18:47.574Z,10.10
2023-04-20T06:21:17.690Z,8.73
2023-04-20T06:23:48.135Z,8.38
2023-04-20T06:26:17.415Z,10.10
2023-04-20T06:28:48.491Z,8.32
2023-04-20T06:31:17.880Z,8.68
2023-04-20T06:33:46.759Z,11.02
2023-04-20T06:36:18.033Z,9.60
2023-04-20T06:38:48.675Z,11.85
2023-04-20T06:41:17.997Z,7.65
2023-04-20T06:43:47.646Z,13.02
2023-04-20T06:46:17.166Z,10.70
2023-04-20T06:48:46.714Z,10.75
2023-04-20T06:51:15.891Z,11.43
2023-04-20T06:53:45.047Z,11.45
2023-04-20T06:56:15.874Z,10.35
2023-04-20T06:58:44.683Z,7.30
2023-04-20T07:01:13.751Z,6.57
2023-04-20T07:03:42.569Z,11.43
2023-04-20T07:06:12.095Z,9.82
2023-04-20T07:08:41.402Z,11.55
2023-04-20T07:11:10.491Z,9.18
2023-04-20T07:13:40.850Z,9.88
2023-04-20T07:16:11.465Z,11.82
2023-04-20T07:18:40.233Z,8.88
2023-04-20T07:21:09.289Z,7.20
2023-04-20T07:23:38.447Z,15.77
2023-04-20T07:26:08.720Z,10.27
2023-04-20T07:28:38.003Z,7.72
2023-04-20T07:31:08.322Z,8.20
2023-04-20T07:33:38.035Z,7.95
2023-04-20T07:36:07.700Z,12.73
2023-04-20T07:38:36.990Z,11.77
2023-04-20T07:41:05.788Z,15.35
2023-04-20T07:43:35.221Z,11.57
2023-04-20T08:02:40.601Z,62.30
2023-04-20T08:05:10.546Z,66.68
2023-04-20T08:07:39.850Z,36.55
2023-04-20T08:10:10.649Z,80.57
2023-04-20T08:12:40.293Z,23.90
2023-04-20T08:15:10.629Z,18.90
2023-04-20T08:17:40.773Z,82.15
2023-04-20T08:20:10.817Z,8.27
2023-04-20T08:22:40.270Z,9.48
2023-04-20T08:25:09.592Z,10.65
2023-04-20T08:27:38.233Z,14.52
2023-04-20T08:30:08.944Z,7.43
2023-04-20T08:32:37.978Z,8.98
2023-04-20T08:35:09.002Z,10.15
2023-04-20T08:37:38.937Z,16.00
2023-04-20T08:40:09.079Z,8.88
2023-04-20T08:42:37.751Z,13.65
2023-04-20T08:45:07.450Z,12.60
2023-04-20T08:47:37.119Z,13.85
2023-04-20T08:50:08.464Z,6.15
2023-04-20T08:52:38.873Z,8.63
2023-04-20T08:55:09.250Z,12.52
2023-04-20T08:57:37.914Z,13.15
2023-04-20T09:00:12.926Z,89.88
2023-04-20T09:02:52.924Z,14.30
2023-04-20T09:05:30.926Z,9.73
2023-04-20T09:08:01.361Z,8.85
2023-04-20T09:10:42.372Z,11.75
2023-04-20T09:13:11.474Z,7.63
2023-04-20T09:15:40.472Z,9.40
2023-04-20T09:18:15.850Z,7.32
2023-04-20T09:20:47.003Z,16.20
2023-04-20T09:23:17.443Z,9.35
2023-04-20T09:25:48.880Z,8.35
2023-04-20T09:28:18.414Z,13.80
2023-04-20T09:30:48.718Z,14.00
2023-04-20T09:33:19.336Z,13.32
2023-04-20T09:35:49.357Z,10.32
2023-04-20T09:38:18.471Z,11.82
2023-04-20T09:40:47.255Z,8.73
2023-04-20T09:43:21.203Z,16.75
2023-04-20T09:45:50.635Z,12.95
2023-04-20T09:48:22.354Z,11.00
2023-04-20T09:50:52.476Z,9.90
2023-04-20T09:53:21.606Z,12.45
2023-04-20T09:55:51.446Z,6.63
2023-04-20T09:58:21.595Z,8.50
2023-04-20T10:00:51.313Z,8.07
2023-04-20T10:03:22.105Z,13.07
2023-04-20T10:05:55.843Z,12.57
2023-04-20T10:08:25.626Z,15.60
2023-04-20T10:10:54.765Z,7.20
2023-04-20T10:13:36.529Z,10.20
2023-04-20T10:16:05.569Z,6.55
2023-04-20T10:18:34.407Z,10.13
2023-04-20T10:21:09.813Z,9.35
2023-04-20T10:23:49.398Z,9.85
2023-04-20T10:26:18.309Z,4.35
2023-04-20T10:28:47.216Z,4.97
2023-04-20T10:31:17.280Z,11.07
2023-04-20T10:33:53.752Z,6.85
2023-04-20T10:36:29.675Z,14.40
2023-04-20T10:38:59.279Z,4.78
2023-04-20T10:41:28.259Z,6.03
2023-04-20T10:43:56.851Z,10.90
2023-04-20T10:46:26.421Z,8.32
2023-04-20T10:48:57.237Z,10.18
2023-04-20T10:51:27.389Z,17.50
2023-04-20T10:54:00.792Z,7.65
2023-04-20T10:56:29.589Z,5.28
2023-04-20T10:59:08.543Z,7.05
2023-04-20T11:01:37.373Z,6.38
2023-04-20T11:04:07.624Z,6.18
2023-04-20T11:06:39.638Z,11.70
2023-04-20T11:09:20.276Z,3.90
2023-04-20T11:12:00.440Z,5.15
2023-04-20T11:14:29.622Z,7.30
2023-04-20T11:16:58.542Z,8.02
2023-04-20T11:19:29.228Z,5.88
2023-04-20T11:21:59.455Z,6.78
2023-04-20T11:24:30.959Z,9.57
2023-04-20T11:27:00.343Z,4.30
2023-04-20T11:29:34.374Z,29.67
2023-04-20T11:32:05.738Z,22.20
2023-04-20T11:34:36.918Z,3.97
2023-04-20T11:37:10.571Z,10.88
2023-04-20T11:39:39.910Z,3.67
2023-04-20T11:42:08.868Z,8.07
2023-04-20T11:44:37.746Z,5.88
2023-04-20T11:47:06.778Z,5.32
2023-04-20T11:49:35.458Z,5.13
2023-04-20T11:52:04.471Z,8.73
2023-04-20T11:54:35.305Z,8.25
2023-04-20T11:57:04.750Z,5.97
2023-04-20T11:59:33.619Z,8.85
2023-04-20T12:02:04.610Z,4.18
2023-04-20T12:04:34.809Z,4.05
2023-04-20T12:07:04.211Z,4.78
2023-04-20T12:09:37.705Z,3.80
2023-04-20T12:12:07.451Z,6.30
2023-04-20T12:14:36.645Z,4.18
2023-04-20T12:17:06.389Z,5.90
2023-04-20T12:19:35.993Z,8.77
2023-04-20T12:22:04.808Z,5.47
2023-04-20T12:24:34.801Z,7.30
2023-04-20T12:27:04.115Z,7.38
2023-04-20T12:29:33.327Z,5.65
2023-04-20T12:32:02.331Z,7.30
2023-04-20T12:34:33.282Z,3.80
2023-04-20T12:37:02.281Z,5.40
2023-04-20T12:39:31.721Z,4.53
2023-04-20T12:42:02.589Z,5.82
2023-04-20T12:44:31.919Z,6.75
2023-04-20T12:47:00.454Z,6.18
2023-04-20T12:49:29.176Z,5.20
2023-04-20T12:51:58.455Z,6.35
2023-04-20T12:54:27.458Z,5.60
2023-04-20T12:56:56.062Z,7.43
2023-04-20T12:59:26.163Z,3.22
2023-04-20T13:01:54.970Z,3.13
2023-04-20T13:04:26.590Z,9.35
2023-04-20T13:06:56.221Z,4.85
2023-04-20T13:09:27.306Z,6.22
2023-04-20T13:11:56.302Z,2.72
2023-04-20T13:14:26.509Z,5.10
2023-04-20T13:16:55.770Z,5.07
2023-04-20T13:19:24.753Z,5.25
2023-04-20T13:21:53.494Z,5.40
2023-04-20T13:24:23.093Z,5.70
2023-04-20T13:26:56.724Z,6.10
2023-04-20T13:29:27.186Z,5.22
2023-04-20T13:31:56.080Z,7.88
2023-04-20T13:34:25.071Z,6.90
2023-04-20T13:36:53.690Z,7.05
2023-04-20T13:39:22.917Z,6.38
2023-04-20T13:41:51.801Z,4.25
2023-04-20T13:44:21.265Z,6.68
2023-04-20T13:46:51.749Z,3.67
2023-04-20T13:49:22.957Z,7.72
2023-04-20T13:51:51.703Z,4.60
2023-04-20T13:54:21.074Z,7.00
2023-04-20T13:56:50.175Z,6.75
2023-04-20T13:59:19.010Z,6.00
2023-04-20T14:01:48.170Z,4.78
2023-04-20T14:04:18.917Z,4.00
2023-04-20T14:06:48.303Z,6.10
2023-04-20T14:09:17.098Z,7.57
2023-04-20T14:11:46.402Z,4.95
2023-04-20T14:14:15.361Z,5.25
2023-04-20T14:16:45.727Z,5.40
2023-04-20T14:19:14.966Z,4.85
2023-04-20T14:21:46.941Z,4.03
2023-04-20T14:26:45.434Z,3.05
2023-04-20T14:29:14.628Z,5.18
2023-04-20T14:31:43.791Z,5.72
2023-04-20T14:34:13.478Z,5.93
2023-04-20T14:36:42.455Z,10.82
2023-04-20T14:39:14.245Z,6.70
2023-04-20T14:41:43.045Z,7.00
2023-04-20T14:44:11.696Z,5.43
2023-04-20T14:46:42.410Z,5.60
2023-04-20T14:49:11.816Z,4.00
2023-04-20T14:51:41.660Z,5.22
2023-04-20T14:54:10.482Z,8.18
2023-04-20T14:56:40.478Z,5.65
2023-04-20T14:59:09.314Z,5.85
2023-04-20T15:01:40.070Z,5.28
2023-04-20T15:04:16.017Z,5.25
2023-04-20T15:06:45.927Z,8.30
2023-04-20T15:09:16.262Z,7.18
2023-04-20T15:11:46.526Z,6.38
2023-04-20T15:14:15.464Z,7.15
2023-04-20T15:16:44.469Z,5.25
2023-04-20T15:19:14.548Z,8.52
2023-04-20T15:21:44.552Z,3.90
2023-04-20T15:24:13.932Z,8.80
2023-04-20T15:26:42.866Z,6.15
2023-04-20T15:29:13.057Z,6.72
2023-04-20T15:31:43.548Z,4.90
2023-04-20T15:34:15.753Z,4.90
2023-04-20T15:36:45.510Z,6.57
2023-04-20T15:39:15.179Z,5.82
2023-04-20T15:41:44.439Z,9.05
2023-04-20T15:44:14.888Z,11.05
2023-04-20T15:46:43.996Z,6.03
2023-04-20T15:49:13.077Z,7.90
2023-04-20T15:51:43.269Z,17.63
2023-04-20T15:54:12.855Z,10.63
2023-04-20T15:56:41.601Z,10.93
2023-04-20T15:59:10.988Z,10.25
2023-04-20T16:01:41.023Z,8.73
2023-04-20T16:04:09.739Z,7.93
2023-04-20T16:06:38.459Z,6.88
2023-04-20T16:09:07.341Z,8.30
2023-04-20T16:11:36.419Z,8.52
2023-04-20T16:14:05.105Z,11.00
2023-04-20T16:16:34.333Z,7.43
2023-04-20T16:19:04.461Z,6.05
2023-04-20T16:21:32.996Z,7.13
2023-04-20T16:24:01.848Z,6.38
2023-04-20T16:26:30.920Z,6.68
2023-04-20T16:29:00.194Z,7.60
2023-04-20T16:31:29.733Z,6.53
2023-04-20T16:33:59.096Z,7.38
2023-04-20T16:36:29.239Z,8.88
2023-04-20T16:38:58.413Z,8.38
2023-04-20T16:41:27.971Z,9.88
2023-04-20T16:43:56.663Z,11.65
2023-04-20T16:46:29.163Z,9.45
2023-04-20T16:48:57.897Z,7.13
2023-04-20T16:51:30.537Z,8.57
2023-04-20T16:54:00.178Z,10.73
2023-04-20T16:56:28.991Z,10.13
2023-04-20T16:58:57.783Z,10.90
2023-04-20T17:01:27.042Z,7.85
2023-04-20T17:03:56.352Z,9.18
2023-04-20T17:06:25.513Z,13.40
2023-04-20T17:08:57.680Z,13.57
2023-04-20T17:11:26.701Z,9.85
2023-04-20T17:13:55.660Z,8.32
2023-04-20T17:16:24.880Z,7.60
2023-04-20T17:18:54.009Z,6.25
2023-04-20T17:21:23.028Z,4.88
2023-04-20T17:23:51.503Z,9.07
2023-04-20T17:26:22.557Z,5.00
2023-04-20T17:28:51.275Z,9.70
2023-04-20T17:31:20.168Z,10.05
2023-04-20T17:33:49.446Z,5.65
2023-04-20T17:36:18.818Z,8.38
2023-04-20T17:38:47.422Z,7.40
2023-04-20T17:41:16.642Z,5.80
2023-04-20T17:43:46.854Z,4.25
2023-04-20T17:46:15.678Z,6.70
2023-04-20T17:48:45.064Z,7.68
2023-04-20T17:51:14.884Z,5.50
2023-04-20T17:53:43.717Z,8.00
2023-04-20T17:56:13.107Z,6.30
2023-04-20T17:58:41.975Z,11.02
2023-04-20T18:01:12.535Z,6.75
2023-04-20T18:03:41.541Z,5.22
2023-04-20T18:06:10.313Z,6.97
2023-04-20T18:08:39.054Z,6.13
2023-04-20T18:11:08.009Z,6.43
2023-04-20T18:13:37.199Z,8.80
2023-04-20T18:16:07.563Z,11.55
2023-04-20T18:18:37.564Z,7.55
2023-04-20T18:21:08.526Z,6.95
2023-04-20T18:23:37.573Z,8.70
2023-04-20T18:26:06.037Z,9.23
2023-04-20T18:28:34.572Z,8.30
2023-04-20T18:31:03.328Z,9.20
2023-04-20T18:33:32.368Z,10.07
2023-04-20T18:36:02.373Z,8.55
2023-04-20T18:38:31.113Z,8.27
2023-04-20T18:41:00.024Z,10.65
2023-04-20T18:43:28.747Z,6.78
2023-04-20T18:45:57.672Z,9.20
2023-04-20T18:48:26.455Z,7.32
2023-04-20T18:50:55.472Z,10.55
2023-04-20T18:53:26.681Z,8.80
2023-04-20T18:55:59.286Z,10.77
2023-04-20T19:00:57.209Z,7.25
2023-04-20T19:03:26.120Z,7.97
2023-04-20T19:05:55.059Z,8.43
2023-04-20T19:08:25.423Z,9.73
2023-04-20T19:10:56.633Z,10.07
2023-04-20T19:13:25.306Z,14.82
2023-04-20T19:15:57.810Z,10.15
2023-04-20T19:18:27.124Z,9.82
2023-04-20T19:20:56.228Z,8.27
2023-04-20T19:23:26.155Z,8.25
2023-04-20T19:25:55.723Z,8.95
2023-04-20T19:28:24.401Z,9.80
2023-04-20T19:30:53.193Z,10.98
2023-04-20T19:33:21.952Z,11.75
2023-04-20T19:35:51.686Z,7.75
2023-04-20T19:38:20.493Z,7.85
2023-04-20T19:40:50.643Z,10.18
2023-04-20T19:43:19.254Z,11.18
2023-04-20T19:45:47.893Z,11.40
2023-04-20T19:48:16.704Z,7.32
2023-04-20T19:50:45.274Z,7.45
2023-04-20T19:53:15.682Z,8.55
2023-04-20T19:55:44.600Z,9.75
2023-04-20T19:58:14.637Z,12.38
2023-04-20T20:00:45.101Z,8.80
2023-04-20T20:03:16.297Z,8.18
2023-04-20T20:05:45.271Z,10.32
2023-04-20T20:08:14.770Z,15.40
2023-04-20T20:10:43.752Z,8.93
2023-04-20T20:13:14.532Z,9.43
2023-04-20T20:15:44.719Z,12.77
2023-04-20T20:18:14.373Z,11.45
2023-04-20T20:20:43.256Z,15.25
2023-04-20T20:23:12.050Z,11.77
2023-04-20T20:25:41.155Z,10.55
2023-04-20T20:28:09.807Z,15.07
2023-04-20T20:30:42.016Z,19.52
2023-04-20T20:35:39.214Z,23.20
2023-04-20T20:38:08.103Z,30.63
2023-04-20T20:40:37.098Z,19.52
2023-04-20T20:43:05.527Z,24.60
2023-04-20T20:45:34.235Z,23.15
2023-04-20T20:48:04.366Z,20.52
2023-04-20T20:50:33.138Z,34.58
2023-04-20T20:53:01.610Z,20.33
2023-04-20T20:55:30.193Z,41.10
2023-04-20T20:57:58.728Z,26.13
2023-04-20T21:00:27.448Z,37.50
2023-04-20T21:02:57.417Z,21.73
2023-04-20T21:05:27.527Z,49.33
2023-04-20T21:07:56.286Z,23.05
2023-04-20T21:10:25.120Z,54.13
2023-04-20T21:12:53.530Z,33.00
2023-04-20T21:15:22.152Z,53.63
2023-04-20T21:17:50.597Z,48.90
2023-04-20T21:20:19.101Z,39.75
2023-04-20T21:22:49.575Z,38.70
2023-04-20T21:25:18.434Z,31.05
2023-04-20T21:27:47.005Z,35.78
2023-04-20T21:30:17.018Z,25.08
2023-04-20T21:32:45.961Z,23.95
2023-04-20T21:35:14.664Z,24.58
2023-04-20T21:37:44.271Z,33.53
2023-04-20T21:40:14.728Z,38.50
2023-04-20T21:42:43.431Z,38.78
2023-04-20T21:45:13.195Z,46.13
2023-04-20T21:47:42.192Z,30.15
2023-04-20T21:50:11.911Z,41.47
2023-04-20T21:52:41.097Z,28.77
2023-04-20T21:55:11.192Z,27.15
2023-04-20T21:57:41.420Z,30.65
2023-04-20T22:00:11.598Z,34.30
2023-04-20T22:02:48.748Z,37.38
2023-04-20T22:05:19.137Z,40.88
2023-04-20T22:07:48.036Z,38.53
2023-04-20T22:10:16.818Z,26.17
2023-04-20T22:12:46.851Z,43.22
2023-04-20T22:15:17.121Z,35.58
2023-04-20T22:17:46.706Z,41.33
2023-04-20T22:20:17.229Z,31.08
2023-04-20T22:22:46.039Z,41.35
2023-04-20T22:25:14.843Z,25.33
2023-04-20T22:27:43.661Z,35.50
2023-04-20T22:30:14.588Z,37.42
2023-04-20T22:32:43.192Z,34.92
2023-04-20T22:35:11.549Z,52.58
2023-04-20T22:37:40.068Z,33.50
2023-04-20T22:40:10.195Z,42.78
2023-04-20T22:42:38.774Z,44.22
2023-04-20T22:45:10.579Z,29.10
2023-04-20T22:47:40.717Z,41.38
2023-04-20T22:50:12.366Z,100.10
2023-04-20T22:52:41.828Z,40.80
2023-04-20T22:55:12.064Z,30.85
2023-04-20T22:57:40.536Z,63.83
2023-04-20T23:00:10.964Z,53.05
2023-04-20T23:02:41.570Z,63.33
2023-04-20T23:05:11.208Z,35.13
2023-04-20T23:07:40.022Z,61.35
2023-04-20T23:10:11.069Z,35.22
2023-04-20T23:12:40.054Z,45.63
2023-04-20T23:15:09.919Z,28.48
2023-04-20T23:17:40.481Z,38.90
2023-04-20T23:20:11.126Z,38.08
2023-04-20T23:22:39.574Z,43.30
2023-04-20T23:25:09.862Z,70.15
2023-04-20T23:27:38.678Z,38.58
2023-04-20T23:30:08.970Z,47.55
2023-04-20T23:32:38.166Z,52.65
2023-04-20T23:35:08.604Z,42.03
2023-04-20T23:37:37.045Z,53.35
2023-04-20T23:40:07.398Z,29.17
2023-04-20T23:42:37.632Z,61.65
2023-04-20T23:45:06.856Z,30.05
2023-04-20T23:47:35.534Z,55.47
2023-04-20T23:50:04.178Z,70.75
2023-04-20T23:52:33.964Z,71.72
2023-04-20T23:55:03.095Z,26.60
2023-04-20T23:57:32.801Z,84.78
